This is the latest recevied weather packets stored in our database for station/object W4CPD. If no packets are shown the sender has not sent any weather packets the latest 10 day(s).
| Time | Temp. | Humidity | Pressure | Rain* | Wind** | Luminosity | Snow |
|---|---|---|---|---|---|---|---|
| 1778089530 | 27.78° C | 81% | 1016.8 hPa | 0 mm | - | - | - |
| 1778086514 | 25.56° C | 89% | 1017.2 hPa | 0 mm | - | - | - |
| 1778084130 | 25° C | 87% | 1017.3 hPa | 0 mm | - | - | - |
| 1778083231 | 25.56° C | 87% | 1017.2 hPa | 0 mm | - | - | - |
| 1778078734 | 24.44° C | 89% | 1016.7 hPa | 0 mm | - | - | - |
| 1778077214 | 24.44° C | 89% | 1016.5 hPa | 0 mm | - | - | - |
| 1778075716 | 23.89° C | 90% | 1016.3 hPa | 0 mm | - | - | - |
| 1778073612 | 23.89° C | 92% | 1016.1 hPa | 0 mm | - | - | - |
| 1778072428 | 23.33° C | 94% | 1015.8 hPa | 0 mm | - | - | - |
| 1778071214 | 22.78° C | 96% | 1015.7 hPa | 0 mm | - | - | - |
| 1778070314 | 22.22° C | 97% | 1015.6 hPa | 0 mm | - | - | - |
| 1778069731 | 22.22° C | 97% | 1015.2 hPa | 0 mm | - | - | - |
| 1778067614 | 21.67° C | 97% | 1014.5 hPa | 0 mm | - | - | - |
| 1778065514 | 21.67° C | 97% | 1014 hPa | 0 mm | - | - | - |
| 1778064914 | 21.67° C | 97% | 1013.9 hPa | 0 mm | - | - | - |
| 1778063714 | 21.67° C | 97% | 1013.6 hPa | 0 mm | - | - | - |
| 1778062815 | 21.67° C | 97% | 1013.4 hPa | 0 mm | - | - | - |
| 1778060731 | 21.11° C | 98% | 1013.2 hPa | 0 mm | - | - | - |
| 1778060417 | 21.11° C | 98% | 1013.2 hPa | 0 mm | - | - | - |
| 1778058028 | 20° C | 99% | 1013.4 hPa | 0 mm | - | - | - |
| 1778055914 | 18.89° C | 96% | 1013.8 hPa | 0 mm | - | - | - |
| 1778055017 | 18.89° C | 96% | 1013.8 hPa | 0 mm | - | - | - |
| 1778054116 | 18.89° C | 96% | 1013.9 hPa | 0 mm | - | - | - |
| 1778051418 | 18.89° C | 95% | 1014.2 hPa | 0 mm | - | - | - |
| 1778050515 | 19.44° C | 95% | 1014.3 hPa | 0 mm | - | - | - |
* Rain latest hour (hover to see other rain measurements)
** Current wind speed in m/s (hover to see current wind gust speed)